createdAt,value
2022-10-17T00:00:17.397Z,101986.28
2022-10-17T00:01:19.864Z,101986.28
2022-10-17T00:02:22.454Z,101984.38
2022-10-17T00:03:24.877Z,101991.75
2022-10-17T00:04:27.248Z,101989.66
2022-10-17T00:05:29.914Z,101989.88
2022-10-17T00:06:32.170Z,101986.19
2022-10-17T00:07:34.585Z,101996.25
2022-10-17T00:08:38.471Z,101985.72
2022-10-17T00:09:43.800Z,101987.78
2022-10-17T00:10:55.043Z,101984.38
2022-10-17T00:11:57.160Z,101989.94
2022-10-17T00:12:59.458Z,101989.13
2022-10-17T00:14:01.869Z,101983.44
2022-10-17T00:15:06.810Z,101984.19
2022-10-17T00:16:09.479Z,101988.69
2022-10-17T00:17:11.776Z,101978.94
2022-10-17T00:18:32.651Z,101987.63
2022-10-17T00:19:34.884Z,101982.13
2022-10-17T00:20:37.035Z,101986.81
2022-10-17T00:21:39.301Z,101986.59
2022-10-17T00:22:41.956Z,101991.13
2022-10-17T00:23:44.381Z,101994.50
2022-10-17T00:24:46.610Z,101989.53
2022-10-17T00:25:58.312Z,101991.66
2022-10-17T00:27:00.554Z,101995.41
2022-10-17T00:28:03.753Z,101999.09
2022-10-17T00:29:06.181Z,101992.75
2022-10-17T00:30:12.672Z,101992.03
2022-10-17T00:31:16.574Z,101994.38
2022-10-17T00:32:20.093Z,101993.81
2022-10-17T00:33:22.442Z,101998.78
2022-10-17T00:34:25.476Z,101992.75
2022-10-17T00:35:27.795Z,102001.69
2022-10-17T00:36:30.346Z,102002.22
2022-10-17T00:37:33.456Z,102003.53
2022-10-17T00:38:37.299Z,101996.44
2022-10-17T00:39:39.545Z,102004.31
2022-10-17T00:40:41.818Z,102006.75
2022-10-17T00:41:44.041Z,102010.19
2022-10-17T00:42:46.593Z,102004.88
2022-10-17T00:44:03.009Z,102005.63
2022-10-17T00:45:30.562Z,102003.84
2022-10-17T00:46:38.168Z,102000.47
2022-10-17T00:47:41.090Z,102002.91
2022-10-17T00:48:44.153Z,102007.91
2022-10-17T00:49:47.347Z,102002.88
2022-10-17T00:50:50.523Z,102005.72
2022-10-17T00:52:18.058Z,102000.72
2022-10-17T00:53:20.424Z,102003.34
2022-10-17T00:54:31.670Z,102006.84
2022-10-17T00:55:38.250Z,102011.25
2022-10-17T00:56:41.933Z,102001.25
2022-10-17T00:57:46.674Z,102003.94
2022-10-17T00:58:49.034Z,102010.78
2022-10-17T00:59:54.652Z,102009.66
2022-10-17T01:00:57.279Z,102009.97
2022-10-17T01:02:08.601Z,102014.75
2022-10-17T01:03:10.826Z,102009.75
2022-10-17T01:04:13.225Z,102010.81
2022-10-17T01:05:17.082Z,102010.53
2022-10-17T01:06:19.410Z,102011.63
2022-10-17T01:07:22.222Z,102007.66
2022-10-17T01:08:25.634Z,102013.44
2022-10-17T01:09:28.072Z,102005.34
2022-10-17T01:10:39.290Z,102006.69
2022-10-17T01:12:04.722Z,102010.63
2022-10-17T01:13:26.941Z,102017.22
2022-10-17T01:14:38.160Z,102007.25
2022-10-17T01:16:02.262Z,102005.41
2022-10-17T01:17:17.927Z,102009.34
2022-10-17T01:18:55.103Z,102010.38
2022-10-17T01:20:30.017Z,102008.84
2022-10-17T01:21:41.982Z,102006.16
2022-10-17T01:22:54.588Z,102019.31
2022-10-17T01:24:18.883Z,102005.09
2022-10-17T01:25:21.139Z,102005.63
2022-10-17T01:26:33.968Z,102006.41
2022-10-17T01:27:49.561Z,102007.28
2022-10-17T01:29:01.661Z,102007.00
2022-10-17T01:30:29.187Z,102004.38
2022-10-17T01:31:45.348Z,101995.75
2022-10-17T01:32:53.516Z,101997.09
2022-10-17T01:34:12.583Z,101998.06
2022-10-17T01:35:24.060Z,102000.94
2022-10-17T01:36:39.198Z,101995.72
2022-10-17T01:37:48.569Z,102000.97
2022-10-17T01:38:57.593Z,101998.31
2022-10-17T01:40:06.416Z,102003.06
2022-10-17T01:41:33.508Z,102000.94
2022-10-17T01:42:58.031Z,102002.53
2022-10-17T01:44:08.733Z,102003.84
2022-10-17T01:45:21.607Z,102000.44
2022-10-17T01:46:36.647Z,102000.44
2022-10-17T01:47:41.183Z,102005.75
2022-10-17T01:48:45.879Z,102004.16
2022-10-17T01:49:53.557Z,102003.66
2022-10-17T01:51:04.011Z,102000.47
2022-10-17T01:52:14.028Z,102002.63
2022-10-17T01:53:25.708Z,102004.72
2022-10-17T01:54:33.734Z,101998.41
2022-10-17T01:55:41.538Z,102005.81
2022-10-17T01:56:46.353Z,102001.09
2022-10-17T01:57:52.180Z,102003.69
2022-10-17T01:59:00.499Z,102003.69
2022-10-17T02:00:08.665Z,102000.03
2022-10-17T02:01:15.939Z,101999.03
2022-10-17T02:02:20.356Z,102002.22
2022-10-17T02:03:24.551Z,102005.38
2022-10-17T02:04:26.647Z,102013.47
2022-10-17T02:05:33.667Z,102006.63
2022-10-17T02:06:37.139Z,102007.13
2022-10-17T02:07:43.571Z,102015.03
2022-10-17T02:08:48.552Z,102003.19
2022-10-17T02:09:51.041Z,102010.03
2022-10-17T02:11:06.153Z,102011.63
2022-10-17T02:12:29.246Z,102019.53
2022-10-17T02:13:49.255Z,102013.19
2022-10-17T02:15:10.245Z,102012.41
2022-10-17T02:16:25.118Z,102014.25
2022-10-17T02:18:05.639Z,102014.84
2022-10-17T02:19:34.093Z,102011.97
2022-10-17T02:20:48.381Z,102020.63
2022-10-17T02:22:05.956Z,102012.75
2022-10-17T02:23:57.663Z,102021.47
2022-10-17T02:25:41.708Z,102027.50
2022-10-17T02:27:01.637Z,102019.88
2022-10-17T02:28:09.636Z,102017.25
2022-10-17T02:29:19.779Z,102024.84
2022-10-17T02:30:51.666Z,102018.25
2022-10-17T02:32:05.932Z,102026.69
2022-10-17T02:33:16.949Z,102027.50
2022-10-17T02:34:45.685Z,102026.19
2022-10-17T02:35:53.921Z,102020.94
2022-10-17T02:37:00.599Z,102030.94
2022-10-17T02:38:05.335Z,102025.44
2022-10-17T02:39:09.727Z,102026.22
2022-10-17T02:40:22.667Z,102019.94
2022-10-17T02:42:35.650Z,102022.31
2022-10-17T02:43:39.782Z,102022.81
2022-10-17T02:44:44.609Z,102020.47
2022-10-17T02:45:50.782Z,102022.00
2022-10-17T02:46:59.759Z,102023.31
2022-10-17T02:48:40.873Z,102021.75
2022-10-17T02:49:49.318Z,102029.09
2022-10-17T02:51:07.256Z,102028.56
2022-10-17T02:52:22.709Z,102029.88
2022-10-17T02:53:30.834Z,102036.72
2022-10-17T02:54:41.931Z,102034.91
2022-10-17T02:55:51.814Z,102033.03
2022-10-17T02:57:20.690Z,102029.91
2022-10-17T02:58:27.517Z,102035.66
2022-10-17T02:59:32.033Z,102031.19
2022-10-17T03:00:34.317Z,102035.97
2022-10-17T03:01:37.128Z,102042.53
2022-10-17T03:02:51.672Z,102035.41
2022-10-17T03:04:05.883Z,102027.25
2022-10-17T03:05:09.147Z,102037.28
2022-10-17T03:06:13.234Z,102038.59
2022-10-17T03:07:16.044Z,102042.78
2022-10-17T03:08:19.596Z,102035.47
2022-10-17T03:09:22.025Z,102035.22
2022-10-17T03:10:24.319Z,102040.50
2022-10-17T03:11:26.493Z,102042.09
2022-10-17T03:12:28.951Z,102036.78
2022-10-17T03:13:33.006Z,102039.41
2022-10-17T03:14:37.440Z,102041.03
2022-10-17T03:15:39.753Z,102033.41
2022-10-17T03:16:42.085Z,102035.25
2022-10-17T03:18:52.274Z,102045.78
2022-10-17T03:19:54.551Z,102035.50
2022-10-17T03:20:56.707Z,102038.13
2022-10-17T03:21:59.007Z,102032.34
2022-10-17T03:23:01.959Z,102032.09
2022-10-17T03:24:05.479Z,102030.50
2022-10-17T03:25:08.493Z,102030.78
2022-10-17T03:26:12.047Z,102034.19
2022-10-17T03:27:14.599Z,102035.50
2022-10-17T03:28:17.056Z,102033.97
2022-10-17T03:29:19.329Z,102037.09
2022-10-17T03:30:22.538Z,102041.28
2022-10-17T03:31:25.609Z,102036.31
2022-10-17T03:32:28.483Z,102044.47
2022-10-17T03:33:31.063Z,102036.84
2022-10-17T03:34:33.420Z,102039.72
2022-10-17T03:35:40.257Z,102041.84
2022-10-17T03:36:44.728Z,102041.28
2022-10-17T03:37:47.040Z,102041.84
2022-10-17T03:38:54.045Z,102042.88
2022-10-17T03:39:57.146Z,102050.00
2022-10-17T03:40:59.445Z,102056.84
2022-10-17T03:42:02.293Z,102060.75
2022-10-17T03:43:04.899Z,102057.91
2022-10-17T03:44:07.701Z,102068.69
2022-10-17T03:45:10.369Z,102061.84
2022-10-17T03:46:13.020Z,102069.44
2022-10-17T03:47:15.377Z,102060.78
2022-10-17T03:48:17.670Z,102059.75
2022-10-17T03:49:19.842Z,102059.75
2022-10-17T03:50:22.087Z,102071.31
2022-10-17T03:51:24.582Z,102062.16
2022-10-17T03:52:31.841Z,102073.69
2022-10-17T03:53:35.140Z,102072.34
2022-10-17T03:54:37.356Z,102072.66
2022-10-17T03:55:39.983Z,102073.44
2022-10-17T03:56:43.605Z,102073.94
2022-10-17T03:57:49.187Z,102072.91
2022-10-17T03:58:55.581Z,102078.94
2022-10-17T03:59:57.870Z,102070.53
2022-10-17T04:01:05.731Z,102068.19
2022-10-17T04:02:08.044Z,102079.47
2022-10-17T04:03:16.280Z,102072.66
2022-10-17T04:04:19.923Z,102073.16
2022-10-17T04:05:22.116Z,102069.75
2022-10-17T04:06:24.748Z,102068.19
2022-10-17T04:07:27.988Z,102069.22
2022-10-17T04:08:31.378Z,102079.22
2022-10-17T04:09:47.554Z,102073.16
2022-10-17T04:10:59.738Z,102076.31
2022-10-17T04:12:02.015Z,102073.44
2022-10-17T04:13:06.957Z,102077.13
2022-10-17T04:14:10.143Z,102083.19
2022-10-17T04:15:14.051Z,102083.94
2022-10-17T04:16:18.075Z,102088.13
2022-10-17T04:17:37.298Z,102087.66
2022-10-17T04:18:42.594Z,102089.75
2022-10-17T04:19:45.297Z,102086.09
2022-10-17T04:20:50.312Z,102088.97
2022-10-17T04:21:53.145Z,102086.31
2022-10-17T04:22:56.259Z,102081.06
2022-10-17T04:24:00.243Z,102085.00
2022-10-17T04:25:33.478Z,102083.44
2022-10-17T04:26:38.501Z,102084.50
2022-10-17T04:27:40.856Z,102080.28
2022-10-17T04:28:43.600Z,102080.28
2022-10-17T04:29:45.843Z,102091.84
2022-10-17T04:31:02.533Z,102091.56
2022-10-17T04:32:10.517Z,102085.25
2022-10-17T04:33:19.522Z,102083.69
2022-10-17T04:34:22.255Z,102088.97
2022-10-17T04:35:24.590Z,102087.13
2022-10-17T04:36:34.511Z,102087.66
2022-10-17T04:37:37.005Z,102090.28
2022-10-17T04:38:46.372Z,102087.91
2022-10-17T04:39:48.635Z,102081.59
2022-10-17T04:40:51.033Z,102086.09
2022-10-17T04:41:54.125Z,102088.44
2022-10-17T04:42:56.656Z,102085.53
2022-10-17T04:44:06.754Z,102089.47
2022-10-17T04:45:13.436Z,102098.97
2022-10-17T04:46:16.626Z,102096.88
2022-10-17T04:47:20.131Z,102089.22
2022-10-17T04:48:22.492Z,102094.75
2022-10-17T04:49:25.018Z,102092.13
2022-10-17T04:50:29.983Z,102094.47
2022-10-17T04:51:53.319Z,102094.47
2022-10-17T04:53:01.978Z,102107.13
2022-10-17T04:54:04.513Z,102099.75
2022-10-17T04:55:07.283Z,102104.47
2022-10-17T04:56:18.944Z,102102.91
2022-10-17T04:57:21.715Z,102105.53
2022-10-17T04:58:51.220Z,102106.06
2022-10-17T04:59:53.881Z,102110.00
2022-10-17T05:01:21.736Z,102103.44
2022-10-17T05:02:27.904Z,102110.25
2022-10-17T05:03:31.128Z,102104.75
2022-10-17T05:04:33.751Z,102103.13
2022-10-17T05:05:40.886Z,102107.88
2022-10-17T05:06:44.358Z,102106.56
2022-10-17T05:08:00.109Z,102100.25
2022-10-17T05:09:06.322Z,102107.88
2022-10-17T05:10:09.401Z,102103.13
2022-10-17T05:11:26.917Z,102109.44
2022-10-17T05:12:29.494Z,102119.19
2022-10-17T05:13:34.030Z,102113.41
2022-10-17T05:14:36.275Z,102116.81
2022-10-17T05:15:39.063Z,102116.03
2022-10-17T05:16:41.435Z,102122.31
2022-10-17T05:17:44.491Z,102116.84
2022-10-17T05:18:55.645Z,102119.19
2022-10-17T05:19:57.816Z,102114.44
2022-10-17T05:21:00.053Z,102116.56
2022-10-17T05:22:02.890Z,102117.06
2022-10-17T05:23:05.139Z,102120.75
2022-10-17T05:24:13.755Z,102123.41
2022-10-17T05:25:16.203Z,102123.91
2022-10-17T05:26:20.177Z,102129.16
2022-10-17T05:27:22.529Z,102131.00
2022-10-17T05:28:30.493Z,102136.22
2022-10-17T05:29:35.823Z,102143.56
2022-10-17T05:30:45.476Z,102139.13
2022-10-17T05:31:47.774Z,102147.53
2022-10-17T05:32:53.750Z,102150.66
2022-10-17T05:34:00.541Z,102150.09
2022-10-17T05:35:04.500Z,102149.94
2022-10-17T05:36:08.202Z,102146.13
2022-10-17T05:37:10.473Z,102149.09
2022-10-17T05:38:13.524Z,102151.09
2022-10-17T05:39:19.875Z,102150.50
2022-10-17T05:40:23.816Z,102154.34
2022-10-17T05:41:28.395Z,102154.72
2022-10-17T05:42:30.967Z,102152.09
2022-10-17T05:43:34.886Z,102158.75
2022-10-17T05:44:37.141Z,102153.16
2022-10-17T05:45:39.699Z,102154.97
2022-10-17T05:46:49.233Z,102159.47
2022-10-17T05:47:52.141Z,102153.38
2022-10-17T05:48:55.835Z,102161.91
2022-10-17T05:49:58.293Z,102160.91
2022-10-17T05:51:09.127Z,102164.69
2022-10-17T05:52:12.133Z,102162.81
2022-10-17T05:53:33.682Z,102169.34
2022-10-17T05:54:39.677Z,102164.69
2022-10-17T05:55:42.150Z,102166.75
2022-10-17T05:56:44.472Z,102168.97
2022-10-17T05:57:46.893Z,102167.16
2022-10-17T05:58:56.220Z,102167.31
2022-10-17T06:00:09.973Z,102176.88
2022-10-17T06:01:19.611Z,102179.94
2022-10-17T06:02:22.100Z,102173.53
2022-10-17T06:03:25.264Z,102176.28
2022-10-17T06:04:28.951Z,102177.69
2022-10-17T06:05:31.369Z,102176.38
2022-10-17T06:06:36.943Z,102173.47
2022-10-17T06:07:39.264Z,102182.13
2022-10-17T06:08:42.544Z,102178.34
2022-10-17T06:09:48.540Z,102181.13
2022-10-17T06:10:51.139Z,102181.13
2022-10-17T06:11:53.369Z,102186.78
2022-10-17T06:12:56.927Z,102181.31
2022-10-17T06:13:59.239Z,102188.88
2022-10-17T06:15:03.869Z,102181.16
2022-10-17T06:16:06.746Z,102181.72
2022-10-17T06:17:14.842Z,102188.69
2022-10-17T06:18:18.853Z,102195.09
2022-10-17T06:19:22.093Z,102192.00
2022-10-17T06:20:24.386Z,102200.00
2022-10-17T06:21:27.760Z,102197.22
2022-10-17T06:22:39.476Z,102196.22
2022-10-17T06:23:48.737Z,102199.59
2022-10-17T06:25:20.249Z,102210.69
2022-10-17T06:26:22.791Z,102207.16
2022-10-17T06:27:25.644Z,102221.19
2022-10-17T06:28:28.363Z,102221.88
2022-10-17T06:29:30.727Z,102216.25
2022-10-17T06:30:33.169Z,102231.25
2022-10-17T06:31:36.931Z,102221.56
2022-10-17T06:32:39.205Z,102227.50
2022-10-17T06:33:41.719Z,102231.81
2022-10-17T06:34:44.207Z,102227.91
2022-10-17T06:35:56.420Z,102232.69
2022-10-17T06:37:00.685Z,102230.78
2022-10-17T06:38:05.112Z,102230.06
2022-10-17T06:39:08.478Z,102228.34
2022-10-17T06:40:22.376Z,102233.19
2022-10-17T06:41:25.516Z,102233.69
2022-10-17T06:42:29.665Z,102227.16
2022-10-17T06:43:47.562Z,102239.47
2022-10-17T06:45:09.236Z,102236.50
2022-10-17T06:46:19.264Z,102241.44
2022-10-17T06:47:34.674Z,102241.91
2022-10-17T06:48:44.695Z,102237.16
2022-10-17T06:50:03.929Z,102240.03
2022-10-17T06:51:12.961Z,102242.69
2022-10-17T06:52:24.032Z,102250.56
2022-10-17T06:53:46.311Z,102250.03
2022-10-17T06:55:23.058Z,102249.28
2022-10-17T06:56:46.695Z,102245.00
2022-10-17T06:58:01.205Z,102253.56
2022-10-17T06:59:20.100Z,102249.38
2022-10-17T07:00:34.861Z,102255.69
2022-10-17T07:01:38.936Z,102254.19
2022-10-17T07:02:44.186Z,102256.50
2022-10-17T07:03:52.561Z,102255.81
2022-10-17T07:04:56.850Z,102249.06
2022-10-17T07:05:59.510Z,102256.78
2022-10-17T07:07:04.082Z,102261.25
2022-10-17T07:08:08.918Z,102257.00
2022-10-17T07:09:14.867Z,102262.38
2022-10-17T07:10:17.272Z,102255.81
2022-10-17T07:11:21.275Z,102264.44
2022-10-17T07:12:29.171Z,102259.97
2022-10-17T07:13:36.764Z,102255.16
2022-10-17T07:14:41.375Z,102256.69
2022-10-17T07:15:44.103Z,102254.16
2022-10-17T07:16:46.539Z,102255.31
2022-10-17T07:17:58.077Z,102257.50
2022-10-17T07:19:00.768Z,102258.28
2022-10-17T07:20:09.648Z,102265.88
2022-10-17T07:21:13.413Z,102264.00
2022-10-17T07:22:16.613Z,102260.72
2022-10-17T07:23:22.901Z,102260.81
2022-10-17T07:24:25.152Z,102265.59
2022-10-17T07:25:40.028Z,102267.78
2022-10-17T07:26:44.376Z,102268.34
2022-10-17T07:27:49.319Z,102270.00
2022-10-17T07:28:54.259Z,102269.66
2022-10-17T07:30:09.357Z,102268.94
2022-10-17T07:31:18.506Z,102275.97
2022-10-17T07:32:20.960Z,102266.56
2022-10-17T07:33:23.511Z,102270.72
2022-10-17T07:34:27.760Z,102266.44
2022-10-17T07:35:33.638Z,102269.59
2022-10-17T07:36:35.996Z,102271.25
2022-10-17T07:37:40.779Z,102270.22
2022-10-17T07:38:43.359Z,102268.38
2022-10-17T07:39:46.750Z,102270.50
2022-10-17T07:40:55.162Z,102270.72
2022-10-17T07:41:59.012Z,102274.69
2022-10-17T07:43:01.718Z,102276.09
2022-10-17T07:44:04.653Z,102277.50
2022-10-17T07:45:11.433Z,102267.31
2022-10-17T07:46:13.909Z,102266.72
2022-10-17T07:47:16.463Z,102273.22
2022-10-17T07:48:20.580Z,102286.25
2022-10-17T07:49:23.001Z,102277.59
2022-10-17T07:50:26.065Z,102282.19
2022-10-17T07:51:28.349Z,102279.22
2022-10-17T07:52:31.765Z,102279.91
2022-10-17T07:53:38.498Z,102269.56
2022-10-17T07:54:41.441Z,102269.47
2022-10-17T07:55:45.112Z,102270.78
2022-10-17T07:56:50.831Z,102265.78
2022-10-17T07:57:53.522Z,102271.47
2022-10-17T07:59:59.927Z,102273.69
2022-10-17T08:01:04.063Z,102279.16
2022-10-17T08:02:08.281Z,102283.06
2022-10-17T08:03:11.120Z,102283.41
2022-10-17T08:04:13.425Z,102281.03
2022-10-17T08:05:15.664Z,102285.78
2022-10-17T08:06:18.463Z,102286.03
2022-10-17T08:07:25.338Z,102285.25
2022-10-17T08:08:30.317Z,102284.47
2022-10-17T08:09:32.749Z,102279.03
2022-10-17T08:10:34.904Z,102280.00
2022-10-17T08:11:37.439Z,102280.16
2022-10-17T08:12:39.788Z,102270.19
2022-10-17T08:13:43.117Z,102272.13
2022-10-17T08:14:48.321Z,102276.41
2022-10-17T08:15:50.525Z,102269.81
2022-10-17T08:16:55.153Z,102271.91
2022-10-17T08:17:57.371Z,102277.78
2022-10-17T08:18:59.765Z,102277.31
2022-10-17T08:20:02.440Z,102277.31
2022-10-17T08:21:08.766Z,102281.44
2022-10-17T08:22:11.225Z,102275.22
2022-10-17T08:23:13.625Z,102276.66
2022-10-17T08:24:16.341Z,102274.25
2022-10-17T08:25:18.891Z,102273.72
2022-10-17T08:26:22.025Z,102280.88
2022-10-17T08:27:25.312Z,102276.84
2022-10-17T08:28:27.660Z,102280.50
2022-10-17T08:29:30.012Z,102283.75
2022-10-17T08:30:32.528Z,102286.97
2022-10-17T08:31:34.774Z,102280.22
2022-10-17T08:32:37.048Z,102287.97
2022-10-17T08:33:39.573Z,102284.00
2022-10-17T08:34:41.743Z,102278.78
2022-10-17T08:35:44.190Z,102281.50
2022-10-17T08:36:46.804Z,102280.56
2022-10-17T08:37:49.760Z,102289.22
2022-10-17T08:38:53.091Z,102285.88
2022-10-17T08:39:55.656Z,102275.31
2022-10-17T08:41:03.850Z,102282.72
2022-10-17T08:42:06.038Z,102275.72
2022-10-17T08:43:18.095Z,102278.16
2022-10-17T08:44:26.715Z,102278.56
2022-10-17T08:45:29.250Z,102278.38
2022-10-17T08:46:34.277Z,102278.03
2022-10-17T08:47:45.638Z,102280.72
2022-10-17T08:48:51.888Z,102268.34
2022-10-17T08:50:00.890Z,102271.09
2022-10-17T08:51:10.654Z,102275.72
2022-10-17T08:52:44.219Z,102273.75
2022-10-17T08:53:49.504Z,102274.06
2022-10-17T08:54:52.106Z,102276.44
2022-10-17T08:55:55.528Z,102275.06
2022-10-17T08:56:58.125Z,102281.75
2022-10-17T08:58:00.519Z,102274.53
2022-10-17T08:59:05.901Z,102285.78
2022-10-17T09:00:17.416Z,102278.19
2022-10-17T09:01:47.772Z,102285.66
2022-10-17T09:03:14.726Z,102283.69
2022-10-17T09:04:47.661Z,102278.97
2022-10-17T09:05:54.158Z,102277.28
2022-10-17T09:07:06.313Z,102279.00
2022-10-17T09:08:23.746Z,102277.84
2022-10-17T09:09:36.760Z,102284.59
2022-10-17T09:10:52.989Z,102283.47
2022-10-17T09:12:22.530Z,102279.59
2022-10-17T09:13:43.450Z,102284.13
2022-10-17T09:15:09.088Z,102274.53
2022-10-17T09:16:40.806Z,102269.28
2022-10-17T09:18:02.184Z,102272.53
2022-10-17T09:19:30.275Z,102278.59
2022-10-17T09:20:37.219Z,102275.25
2022-10-17T09:21:45.132Z,102279.41
2022-10-17T09:23:09.749Z,102277.22
2022-10-17T09:24:21.114Z,102278.84
2022-10-17T09:25:23.743Z,102276.88
2022-10-17T09:26:26.868Z,102280.78
2022-10-17T09:27:35.180Z,102286.84
2022-10-17T09:28:39.962Z,102281.97
2022-10-17T09:29:48.207Z,102279.34
2022-10-17T09:31:02.185Z,102282.50
2022-10-17T09:32:13.936Z,102279.78
2022-10-17T09:33:35.196Z,102285.13
2022-10-17T09:34:42.897Z,102282.47
2022-10-17T09:35:46.583Z,102283.84
2022-10-17T09:36:49.026Z,102281.31
2022-10-17T09:37:52.355Z,102274.09
2022-10-17T09:39:00.373Z,102283.59
2022-10-17T09:40:09.619Z,102282.69
2022-10-17T09:41:50.528Z,102276.56
2022-10-17T09:42:54.201Z,102272.47
2022-10-17T09:43:57.767Z,102270.59
2022-10-17T09:45:15.573Z,102282.72
2022-10-17T09:46:36.836Z,102271.69
2022-10-17T09:47:46.106Z,102284.97
2022-10-17T09:49:03.340Z,102277.06
2022-10-17T09:50:15.183Z,102272.91
2022-10-17T09:51:25.783Z,102276.97
2022-10-17T09:52:36.674Z,102279.38
2022-10-17T09:53:48.600Z,102273.56
2022-10-17T09:54:59.398Z,102270.28
2022-10-17T09:56:07.374Z,102272.19
2022-10-17T09:57:11.711Z,102268.81
2022-10-17T09:58:14.417Z,102261.84
2022-10-17T09:59:31.742Z,102262.16
2022-10-17T10:00:45.994Z,102268.69
2022-10-17T10:01:48.641Z,102264.41
2022-10-17T10:02:50.801Z,102266.72
2022-10-17T10:04:11.367Z,102267.16
2022-10-17T10:05:20.200Z,102269.06
2022-10-17T10:06:22.695Z,102264.41
2022-10-17T10:07:30.691Z,102259.81
2022-10-17T10:08:38.550Z,102263.56
2022-10-17T10:09:46.989Z,102267.34
2022-10-17T10:10:58.665Z,102264.06
2022-10-17T10:12:05.496Z,102268.66
2022-10-17T10:13:20.397Z,102270.63
2022-10-17T10:14:33.710Z,102269.84
2022-10-17T10:15:41.840Z,102259.06
2022-10-17T10:16:46.524Z,102267.53
2022-10-17T10:17:48.984Z,102272.19
2022-10-17T10:18:52.279Z,102258.25
2022-10-17T10:19:54.997Z,102259.78
2022-10-17T10:21:17.155Z,102260.59
2022-10-17T10:22:23.801Z,102265.97
2022-10-17T10:23:26.528Z,102262.91
2022-10-17T10:24:31.198Z,102262.75
2022-10-17T10:25:35.289Z,102261.28
2022-10-17T10:26:47.592Z,102262.66
2022-10-17T10:27:50.077Z,102268.28
2022-10-17T10:29:05.731Z,102264.03
2022-10-17T10:30:28.082Z,102263.25
2022-10-17T10:31:39.857Z,102259.06
2022-10-17T10:32:46.999Z,102262.91
2022-10-17T10:33:52.091Z,102266.34
2022-10-17T10:35:19.773Z,102268.69
2022-10-17T10:36:23.516Z,102262.84
2022-10-17T10:37:43.607Z,102262.69
2022-10-17T10:38:54.186Z,102264.41
2022-10-17T10:40:06.415Z,102258.53
2022-10-17T10:41:11.292Z,102256.59
2022-10-17T10:42:25.842Z,102257.91
2022-10-17T10:43:44.597Z,102260.59
2022-10-17T10:44:48.338Z,102258.03
2022-10-17T10:46:21.532Z,102252.50
2022-10-17T10:47:27.210Z,102255.19
2022-10-17T10:48:36.980Z,102255.00
2022-10-17T10:49:39.755Z,102255.69
2022-10-17T10:50:57.094Z,102256.13
2022-10-17T10:52:03.367Z,102253.63
2022-10-17T10:53:05.552Z,102265.09
2022-10-17T10:54:22.008Z,102249.31
2022-10-17T10:55:28.673Z,102249.75
2022-10-17T10:56:39.067Z,102249.66
2022-10-17T10:57:44.077Z,102253.66
2022-10-17T10:58:49.360Z,102256.34
2022-10-17T11:00:04.703Z,102244.69
2022-10-17T11:01:17.311Z,102246.91
2022-10-17T11:02:24.728Z,102249.97
2022-10-17T11:03:34.000Z,102250.34
2022-10-17T11:04:51.159Z,102246.75
2022-10-17T11:06:19.079Z,102251.78
2022-10-17T11:07:28.983Z,102246.91
2022-10-17T11:08:43.403Z,102250.88
2022-10-17T11:09:57.601Z,102241.19
2022-10-17T11:11:13.948Z,102242.63
2022-10-17T11:12:25.327Z,102243.91
2022-10-17T11:13:54.314Z,102248.59
2022-10-17T11:15:03.029Z,102252.81
2022-10-17T11:16:33.689Z,102258.28
2022-10-17T11:17:45.781Z,102245.59
2022-10-17T11:18:59.033Z,102244.38
2022-10-17T11:20:20.212Z,102242.06
2022-10-17T11:22:01.197Z,102242.59
2022-10-17T11:23:21.681Z,102240.13
2022-10-17T11:25:06.234Z,102240.09
2022-10-17T11:26:16.167Z,102230.22
2022-10-17T11:27:18.712Z,102234.84
2022-10-17T11:28:23.847Z,102233.94
2022-10-17T11:29:32.364Z,102235.19
2022-10-17T11:30:45.973Z,102230.50
2022-10-17T11:31:52.317Z,102236.47
2022-10-17T11:33:01.184Z,102235.28
2022-10-17T11:34:05.980Z,102230.47
2022-10-17T11:35:30.860Z,102228.81
2022-10-17T11:36:40.629Z,102224.09
2022-10-17T11:37:49.163Z,102225.03
2022-10-17T11:38:57.715Z,102229.34
2022-10-17T11:40:05.676Z,102223.50
2022-10-17T11:41:14.237Z,102225.72
2022-10-17T11:42:24.871Z,102220.56
2022-10-17T11:43:28.947Z,102227.41
2022-10-17T11:44:39.720Z,102231.66
2022-10-17T11:45:50.266Z,102223.84
2022-10-17T11:47:00.325Z,102219.84
2022-10-17T11:48:10.941Z,102219.56
2022-10-17T11:49:20.686Z,102212.53
2022-10-17T11:52:03.400Z,102223.38
2022-10-17T11:53:17.032Z,102214.75
2022-10-17T11:54:26.613Z,102214.34
2022-10-17T11:55:31.051Z,102217.47
2022-10-17T11:56:42.769Z,102216.50
2022-10-17T11:58:17.054Z,102218.59
2022-10-17T11:59:53.289Z,102214.44
2022-10-17T12:00:55.511Z,102213.69
2022-10-17T12:02:15.106Z,102210.88
2022-10-17T12:03:20.028Z,102209.88
2022-10-17T12:04:49.626Z,102207.78
2022-10-17T12:05:57.654Z,102210.88
2022-10-17T12:07:01.618Z,102207.28
2022-10-17T12:08:31.951Z,102219.53
2022-10-17T12:10:10.132Z,102210.53
2022-10-17T12:11:40.512Z,102208.91
2022-10-17T12:12:43.576Z,102204.50
2022-10-17T12:13:45.747Z,102200.06
2022-10-17T12:14:48.037Z,102208.09
2022-10-17T12:15:50.532Z,102203.53
2022-10-17T12:16:53.767Z,102198.59
2022-10-17T12:18:04.636Z,102206.09
2022-10-17T12:19:11.975Z,102209.34
2022-10-17T12:20:27.673Z,102203.19
2022-10-17T12:22:04.693Z,102202.38
2022-10-17T12:23:12.697Z,102194.81
2022-10-17T12:24:28.728Z,102200.94
2022-10-17T12:25:33.940Z,102196.28
2022-10-17T12:26:38.185Z,102192.66
2022-10-17T12:27:48.742Z,102196.22
2022-10-17T12:28:51.753Z,102195.19
2022-10-17T12:30:01.155Z,102188.50
2022-10-17T12:31:06.105Z,102197.78
2022-10-17T12:32:13.528Z,102194.78
2022-10-17T12:33:28.297Z,102185.66
2022-10-17T12:34:30.561Z,102194.25
2022-10-17T12:35:35.123Z,102194.47
2022-10-17T12:36:38.908Z,102193.53
2022-10-17T12:37:43.806Z,102188.88
2022-10-17T12:38:49.857Z,102190.06
2022-10-17T12:39:52.580Z,102194.88
2022-10-17T12:40:56.852Z,102193.66
2022-10-17T12:41:59.047Z,102187.22
2022-10-17T12:43:30.246Z,102189.63
2022-10-17T12:44:34.928Z,102184.09
2022-10-17T12:46:03.494Z,102186.38
2022-10-17T12:47:05.773Z,102190.78
2022-10-17T12:48:11.938Z,102185.97
2022-10-17T12:49:36.515Z,102188.81
2022-10-17T12:51:17.633Z,102188.97
2022-10-17T12:52:32.959Z,102189.75
2022-10-17T12:53:50.785Z,102188.44
2022-10-17T12:55:12.232Z,102173.72
2022-10-17T12:56:30.133Z,102176.91
2022-10-17T12:57:48.838Z,102179.50
2022-10-17T12:58:52.042Z,102171.06
2022-10-17T12:59:57.893Z,102181.56
2022-10-17T13:02:29.192Z,102171.63
2022-10-17T13:03:35.329Z,102173.59
2022-10-17T13:04:37.691Z,102177.09
2022-10-17T13:05:42.550Z,102173.91
2022-10-17T13:06:53.507Z,102176.78
2022-10-17T13:07:58.029Z,102176.34
2022-10-17T13:09:08.906Z,102169.50